sensor_id;sensor_type;location;lat;lon;timestamp;P1;durP1;ratioP1;P2;durP2;ratioP2
70505;SDS011;58032;49.820;6.274;2023-03-21T00:01:43;9.77;;;3.97;;
70505;SDS011;58032;49.820;6.274;2023-03-21T00:04:10;8.52;;;3.70;;
70505;SDS011;58032;49.820;6.274;2023-03-21T00:06:37;9.75;;;3.88;;
70505;SDS011;58032;49.820;6.274;2023-03-21T00:09:04;9.57;;;3.75;;
70505;SDS011;58032;49.820;6.274;2023-03-21T00:11:31;9.50;;;4.03;;
70505;SDS011;58032;49.820;6.274;2023-03-21T00:13:58;10.57;;;4.43;;
70505;SDS011;58032;49.820;6.274;2023-03-21T00:16:27;13.40;;;4.80;;
70505;SDS011;58032;49.820;6.274;2023-03-21T00:19:01;11.55;;;4.18;;
70505;SDS011;58032;49.820;6.274;2023-03-21T00:21:32;14.02;;;3.70;;
70505;SDS011;58032;49.820;6.274;2023-03-21T00:24:23;7.63;;;3.58;;
70505;SDS011;58032;49.820;6.274;2023-03-21T00:26:50;7.33;;;3.40;;
70505;SDS011;58032;49.820;6.274;2023-03-21T00:29:18;11.45;;;3.72;;
70505;SDS011;58032;49.820;6.274;2023-03-21T00:31:45;9.73;;;3.45;;
70505;SDS011;58032;49.820;6.274;2023-03-21T00:34:12;7.47;;;3.55;;
70505;SDS011;58032;49.820;6.274;2023-03-21T00:36:39;10.45;;;3.20;;
70505;SDS011;58032;49.820;6.274;2023-03-21T00:39:06;10.03;;;3.53;;
70505;SDS011;58032;49.820;6.274;2023-03-21T00:41:33;13.07;;;3.90;;
70505;SDS011;58032;49.820;6.274;2023-03-21T00:44:08;7.68;;;3.78;;
70505;SDS011;58032;49.820;6.274;2023-03-21T00:46:37;9.77;;;3.63;;
70505;SDS011;58032;49.820;6.274;2023-03-21T00:49:24;11.05;;;3.88;;
70505;SDS011;58032;49.820;6.274;2023-03-21T00:51:51;10.23;;;3.53;;
70505;SDS011;58032;49.820;6.274;2023-03-21T00:54:20;10.05;;;3.60;;
70505;SDS011;58032;49.820;6.274;2023-03-21T00:56:47;12.73;;;3.95;;
70505;SDS011;58032;49.820;6.274;2023-03-21T00:59:14;8.85;;;3.50;;
70505;SDS011;58032;49.820;6.274;2023-03-21T01:01:42;10.35;;;3.97;;
70505;SDS011;58032;49.820;6.274;2023-03-21T01:04:12;11.10;;;3.30;;
70505;SDS011;58032;49.820;6.274;2023-03-21T01:06:42;10.13;;;4.18;;
70505;SDS011;58032;49.820;6.274;2023-03-21T01:09:12;8.85;;;3.65;;
70505;SDS011;58032;49.820;6.274;2023-03-21T01:11:42;9.07;;;3.63;;
70505;SDS011;58032;49.820;6.274;2023-03-21T01:14:10;12.95;;;3.40;;
70505;SDS011;58032;49.820;6.274;2023-03-21T01:16:49;8.70;;;3.40;;
70505;SDS011;58032;49.820;6.274;2023-03-21T01:19:18;14.82;;;4.20;;
70505;SDS011;58032;49.820;6.274;2023-03-21T01:21:53;11.88;;;4.05;;
70505;SDS011;58032;49.820;6.274;2023-03-21T01:24:22;10.43;;;3.70;;
70505;SDS011;58032;49.820;6.274;2023-03-21T01:26:49;9.32;;;3.63;;
70505;SDS011;58032;49.820;6.274;2023-03-21T01:29:16;7.40;;;3.60;;
70505;SDS011;58032;49.820;6.274;2023-03-21T01:31:43;9.60;;;3.78;;
70505;SDS011;58032;49.820;6.274;2023-03-21T01:34:10;10.00;;;3.60;;
70505;SDS011;58032;49.820;6.274;2023-03-21T01:36:37;13.02;;;3.55;;
70505;SDS011;58032;49.820;6.274;2023-03-21T01:39:08;9.88;;;3.50;;
70505;SDS011;58032;49.820;6.274;2023-03-21T01:41:36;10.10;;;3.30;;
70505;SDS011;58032;49.820;6.274;2023-03-21T01:44:21;10.70;;;3.45;;
70505;SDS011;58032;49.820;6.274;2023-03-21T01:46:49;13.32;;;3.95;;
70505;SDS011;58032;49.820;6.274;2023-03-21T01:50:06;10.93;;;3.70;;
70505;SDS011;58032;49.820;6.274;2023-03-21T01:52:51;8.55;;;3.88;;
70505;SDS011;58032;49.820;6.274;2023-03-21T01:55:25;10.83;;;3.90;;
70505;SDS011;58032;49.820;6.274;2023-03-21T01:57:58;9.32;;;3.55;;
70505;SDS011;58032;49.820;6.274;2023-03-21T02:00:59;10.38;;;3.33;;
70505;SDS011;58032;49.820;6.274;2023-03-21T02:03:35;5.95;;;3.20;;
70505;SDS011;58032;49.820;6.274;2023-03-21T02:06:36;9.65;;;3.17;;
70505;SDS011;58032;49.820;6.274;2023-03-21T02:09:23;7.63;;;3.37;;
70505;SDS011;58032;49.820;6.274;2023-03-21T02:11:54;12.68;;;3.40;;
70505;SDS011;58032;49.820;6.274;2023-03-21T02:14:24;7.13;;;3.35;;
70505;SDS011;58032;49.820;6.274;2023-03-21T02:30:49;8.60;;;3.47;;
70505;SDS011;58032;49.820;6.274;2023-03-21T02:39:11;8.75;;;3.03;;
70505;SDS011;58032;49.820;6.274;2023-03-21T02:47:13;8.60;;;3.67;;
70505;SDS011;58032;49.820;6.274;2023-03-21T02:50:06;8.77;;;3.37;;
70505;SDS011;58032;49.820;6.274;2023-03-21T02:52:38;8.43;;;3.05;;
70505;SDS011;58032;49.820;6.274;2023-03-21T02:55:11;9.43;;;3.70;;
70505;SDS011;58032;49.820;6.274;2023-03-21T02:57:48;10.73;;;3.33;;
70505;SDS011;58032;49.820;6.274;2023-03-21T03:00:19;6.97;;;3.22;;
70505;SDS011;58032;49.820;6.274;2023-03-21T03:02:50;9.53;;;3.83;;
70505;SDS011;58032;49.820;6.274;2023-03-21T03:05:33;10.52;;;3.50;;
70505;SDS011;58032;49.820;6.274;2023-03-21T03:10:55;8.50;;;3.10;;
70505;SDS011;58032;49.820;6.274;2023-03-21T03:14:26;8.15;;;3.30;;
70505;SDS011;58032;49.820;6.274;2023-03-21T03:19:50;10.82;;;3.35;;
70505;SDS011;58032;49.820;6.274;2023-03-21T03:25:28;9.57;;;3.40;;
70505;SDS011;58032;49.820;6.274;2023-03-21T03:28:24;11.38;;;5.45;;
70505;SDS011;58032;49.820;6.274;2023-03-21T03:30:55;10.70;;;3.47;;
70505;SDS011;58032;49.820;6.274;2023-03-21T03:33:40;9.38;;;3.30;;
70505;SDS011;58032;49.820;6.274;2023-03-21T03:36:12;9.80;;;3.30;;
70505;SDS011;58032;49.820;6.274;2023-03-21T03:39:06;11.77;;;3.78;;
70505;SDS011;58032;49.820;6.274;2023-03-21T03:41:53;9.05;;;3.55;;
70505;SDS011;58032;49.820;6.274;2023-03-21T03:44:41;8.33;;;3.20;;
70505;SDS011;58032;49.820;6.274;2023-03-21T03:47:10;9.00;;;3.42;;
70505;SDS011;58032;49.820;6.274;2023-03-21T03:50:06;7.60;;;3.25;;
70505;SDS011;58032;49.820;6.274;2023-03-21T03:52:45;8.32;;;3.25;;
70505;SDS011;58032;49.820;6.274;2023-03-21T03:55:24;7.88;;;3.58;;
70505;SDS011;58032;49.820;6.274;2023-03-21T03:57:59;10.03;;;3.20;;
70505;SDS011;58032;49.820;6.274;2023-03-21T04:00:32;9.68;;;3.60;;
70505;SDS011;58032;49.820;6.274;2023-03-21T04:03:00;7.78;;;3.17;;
70505;SDS011;58032;49.820;6.274;2023-03-21T04:05:27;11.63;;;3.50;;
70505;SDS011;58032;49.820;6.274;2023-03-21T04:07:54;12.48;;;3.90;;
70505;SDS011;58032;49.820;6.274;2023-03-21T04:10:30;9.97;;;3.50;;
70505;SDS011;58032;49.820;6.274;2023-03-21T04:12:58;8.60;;;3.38;;
70505;SDS011;58032;49.820;6.274;2023-03-21T04:15:40;10.18;;;3.42;;
70505;SDS011;58032;49.820;6.274;2023-03-21T04:18:13;11.88;;;3.38;;
70505;SDS011;58032;49.820;6.274;2023-03-21T04:20:41;10.15;;;3.45;;
70505;SDS011;58032;49.820;6.274;2023-03-21T04:23:10;9.07;;;3.60;;
70505;SDS011;58032;49.820;6.274;2023-03-21T04:25:43;8.05;;;3.08;;
70505;SDS011;58032;49.820;6.274;2023-03-21T04:28:21;10.50;;;3.30;;
70505;SDS011;58032;49.820;6.274;2023-03-21T04:30:59;8.75;;;3.20;;
70505;SDS011;58032;49.820;6.274;2023-03-21T04:33:42;9.38;;;3.70;;
70505;SDS011;58032;49.820;6.274;2023-03-21T04:36:10;13.83;;;4.03;;
70505;SDS011;58032;49.820;6.274;2023-03-21T04:38:51;12.80;;;4.10;;
70505;SDS011;58032;49.820;6.274;2023-03-21T04:41:19;12.32;;;3.50;;
70505;SDS011;58032;49.820;6.274;2023-03-21T04:43:47;8.48;;;3.35;;
70505;SDS011;58032;49.820;6.274;2023-03-21T04:46:14;11.20;;;3.72;;
70505;SDS011;58032;49.820;6.274;2023-03-21T04:48:41;9.30;;;4.40;;
70505;SDS011;58032;49.820;6.274;2023-03-21T04:51:08;10.07;;;3.50;;
70505;SDS011;58032;49.820;6.274;2023-03-21T04:53:35;11.10;;;4.10;;
70505;SDS011;58032;49.820;6.274;2023-03-21T04:56:04;8.38;;;3.40;;
70505;SDS011;58032;49.820;6.274;2023-03-21T04:58:32;8.57;;;3.90;;
70505;SDS011;58032;49.820;6.274;2023-03-21T05:00:59;10.73;;;3.77;;
70505;SDS011;58032;49.820;6.274;2023-03-21T05:03:27;10.18;;;3.83;;
70505;SDS011;58032;49.820;6.274;2023-03-21T05:06:00;10.35;;;3.42;;
70505;SDS011;58032;49.820;6.274;2023-03-21T05:08:27;14.05;;;3.90;;
70505;SDS011;58032;49.820;6.274;2023-03-21T05:10:54;8.88;;;3.63;;
70505;SDS011;58032;49.820;6.274;2023-03-21T05:13:24;9.20;;;3.50;;
70505;SDS011;58032;49.820;6.274;2023-03-21T05:15:51;9.77;;;3.58;;
70505;SDS011;58032;49.820;6.274;2023-03-21T05:18:18;7.45;;;3.60;;
70505;SDS011;58032;49.820;6.274;2023-03-21T05:21:08;12.75;;;3.85;;
70505;SDS011;58032;49.820;6.274;2023-03-21T05:23:39;11.88;;;3.55;;
70505;SDS011;58032;49.820;6.274;2023-03-21T05:26:07;11.10;;;3.93;;
70505;SDS011;58032;49.820;6.274;2023-03-21T05:28:50;9.57;;;3.75;;
70505;SDS011;58032;49.820;6.274;2023-03-21T05:31:17;13.50;;;3.80;;
70505;SDS011;58032;49.820;6.274;2023-03-21T05:33:47;9.95;;;3.63;;
70505;SDS011;58032;49.820;6.274;2023-03-21T05:36:17;10.65;;;3.67;;
70505;SDS011;58032;49.820;6.274;2023-03-21T05:38:44;8.87;;;3.57;;
70505;SDS011;58032;49.820;6.274;2023-03-21T05:41:13;8.40;;;3.88;;
70505;SDS011;58032;49.820;6.274;2023-03-21T05:43:41;12.32;;;3.72;;
70505;SDS011;58032;49.820;6.274;2023-03-21T05:46:09;10.80;;;4.20;;
70505;SDS011;58032;49.820;6.274;2023-03-21T05:48:37;7.93;;;3.33;;
70505;SDS011;58032;49.820;6.274;2023-03-21T05:51:13;8.80;;;3.40;;
70505;SDS011;58032;49.820;6.274;2023-03-21T05:53:40;8.43;;;3.85;;
70505;SDS011;58032;49.820;6.274;2023-03-21T05:56:07;11.13;;;3.72;;
70505;SDS011;58032;49.820;6.274;2023-03-21T05:58:54;9.75;;;4.30;;
70505;SDS011;58032;49.820;6.274;2023-03-21T06:01:22;9.93;;;3.78;;
70505;SDS011;58032;49.820;6.274;2023-03-21T06:03:57;8.07;;;3.57;;
70505;SDS011;58032;49.820;6.274;2023-03-21T06:06:26;13.00;;;4.10;;
70505;SDS011;58032;49.820;6.274;2023-03-21T06:08:55;11.30;;;3.63;;
70505;SDS011;58032;49.820;6.274;2023-03-21T06:11:29;6.50;;;3.60;;
70505;SDS011;58032;49.820;6.274;2023-03-21T06:14:14;8.50;;;4.03;;
70505;SDS011;58032;49.820;6.274;2023-03-21T06:16:43;16.57;;;4.40;;
70505;SDS011;58032;49.820;6.274;2023-03-21T06:19:10;10.82;;;3.88;;
70505;SDS011;58032;49.820;6.274;2023-03-21T06:21:53;8.52;;;3.88;;
70505;SDS011;58032;49.820;6.274;2023-03-21T06:24:20;11.38;;;4.90;;
70505;SDS011;58032;49.820;6.274;2023-03-21T06:26:47;10.27;;;4.50;;
70505;SDS011;58032;49.820;6.274;2023-03-21T06:29:14;12.20;;;4.60;;
70505;SDS011;58032;49.820;6.274;2023-03-21T06:31:46;9.65;;;3.55;;
70505;SDS011;58032;49.820;6.274;2023-03-21T06:34:13;11.43;;;4.10;;
70505;SDS011;58032;49.820;6.274;2023-03-21T06:36:40;7.90;;;3.35;;
70505;SDS011;58032;49.820;6.274;2023-03-21T06:39:11;8.75;;;3.65;;
70505;SDS011;58032;49.820;6.274;2023-03-21T06:41:39;9.30;;;3.90;;
70505;SDS011;58032;49.820;6.274;2023-03-21T06:44:06;9.48;;;3.67;;
70505;SDS011;58032;49.820;6.274;2023-03-21T06:46:42;10.48;;;3.78;;
70505;SDS011;58032;49.820;6.274;2023-03-21T06:49:10;11.85;;;4.20;;
70505;SDS011;58032;49.820;6.274;2023-03-21T06:51:37;9.30;;;3.95;;
70505;SDS011;58032;49.820;6.274;2023-03-21T06:54:08;8.30;;;3.97;;
70505;SDS011;58032;49.820;6.274;2023-03-21T06:56:44;11.10;;;3.72;;
70505;SDS011;58032;49.820;6.274;2023-03-21T06:59:18;8.60;;;3.72;;
70505;SDS011;58032;49.820;6.274;2023-03-21T07:01:51;9.73;;;3.50;;
70505;SDS011;58032;49.820;6.274;2023-03-21T07:04:19;9.80;;;3.45;;
70505;SDS011;58032;49.820;6.274;2023-03-21T07:06:46;8.10;;;4.27;;
70505;SDS011;58032;49.820;6.274;2023-03-21T07:09:13;6.15;;;3.00;;
70505;SDS011;58032;49.820;6.274;2023-03-21T07:11:43;7.90;;;3.50;;
70505;SDS011;58032;49.820;6.274;2023-03-21T07:14:10;8.57;;;3.97;;
70505;SDS011;58032;49.820;6.274;2023-03-21T07:16:37;12.63;;;4.13;;
70505;SDS011;58032;49.820;6.274;2023-03-21T07:19:04;9.90;;;4.17;;
70505;SDS011;58032;49.820;6.274;2023-03-21T07:21:30;11.35;;;4.15;;
70505;SDS011;58032;49.820;6.274;2023-03-21T07:23:57;11.10;;;4.35;;
70505;SDS011;58032;49.820;6.274;2023-03-21T07:26:24;10.88;;;4.20;;
70505;SDS011;58032;49.820;6.274;2023-03-21T07:28:51;13.77;;;4.30;;
70505;SDS011;58032;49.820;6.274;2023-03-21T07:31:19;8.00;;;3.43;;
70505;SDS011;58032;49.820;6.274;2023-03-21T07:33:47;10.45;;;3.33;;
70505;SDS011;58032;49.820;6.274;2023-03-21T07:36:14;10.15;;;2.58;;
70505;SDS011;58032;49.820;6.274;2023-03-21T07:38:42;7.53;;;3.17;;
70505;SDS011;58032;49.820;6.274;2023-03-21T07:41:10;9.98;;;3.95;;
70505;SDS011;58032;49.820;6.274;2023-03-21T07:43:37;9.80;;;3.57;;
70505;SDS011;58032;49.820;6.274;2023-03-21T07:46:08;9.05;;;3.08;;
70505;SDS011;58032;49.820;6.274;2023-03-21T07:48:35;7.47;;;3.53;;
70505;SDS011;58032;49.820;6.274;2023-03-21T07:51:02;10.80;;;3.70;;
70505;SDS011;58032;49.820;6.274;2023-03-21T07:53:33;6.97;;;3.28;;
70505;SDS011;58032;49.820;6.274;2023-03-21T07:56:00;8.07;;;3.70;;
70505;SDS011;58032;49.820;6.274;2023-03-21T07:58:27;9.55;;;3.72;;
70505;SDS011;58032;49.820;6.274;2023-03-21T08:00:54;9.15;;;3.53;;
70505;SDS011;58032;49.820;6.274;2023-03-21T08:03:22;10.25;;;3.63;;
70505;SDS011;58032;49.820;6.274;2023-03-21T08:05:49;8.98;;;3.08;;
70505;SDS011;58032;49.820;6.274;2023-03-21T08:08:16;9.77;;;3.30;;
70505;SDS011;58032;49.820;6.274;2023-03-21T08:10:43;6.72;;;3.20;;
70505;SDS011;58032;49.820;6.274;2023-03-21T08:13:11;8.02;;;3.80;;
70505;SDS011;58032;49.820;6.274;2023-03-21T08:15:38;11.40;;;3.80;;
70505;SDS011;58032;49.820;6.274;2023-03-21T08:18:08;9.38;;;3.03;;
70505;SDS011;58032;49.820;6.274;2023-03-21T08:20:35;10.73;;;3.63;;
70505;SDS011;58032;49.820;6.274;2023-03-21T08:23:03;16.10;;;3.92;;
70505;SDS011;58032;49.820;6.274;2023-03-21T08:25:30;11.80;;;4.30;;
70505;SDS011;58032;49.820;6.274;2023-03-21T08:27:57;7.30;;;3.42;;
70505;SDS011;58032;49.820;6.274;2023-03-21T08:30:24;6.40;;;3.22;;
70505;SDS011;58032;49.820;6.274;2023-03-21T08:32:56;9.30;;;3.53;;
70505;SDS011;58032;49.820;6.274;2023-03-21T08:35:26;8.15;;;3.17;;
70505;SDS011;58032;49.820;6.274;2023-03-21T08:37:54;9.80;;;3.70;;
70505;SDS011;58032;49.820;6.274;2023-03-21T08:40:21;8.02;;;3.13;;
70505;SDS011;58032;49.820;6.274;2023-03-21T08:42:48;9.13;;;3.42;;
70505;SDS011;58032;49.820;6.274;2023-03-21T08:45:15;9.17;;;3.27;;
70505;SDS011;58032;49.820;6.274;2023-03-21T08:47:43;9.85;;;3.90;;
70505;SDS011;58032;49.820;6.274;2023-03-21T08:50:12;10.75;;;3.15;;
70505;SDS011;58032;49.820;6.274;2023-03-21T08:52:41;9.15;;;3.88;;
70505;SDS011;58032;49.820;6.274;2023-03-21T08:55:08;9.85;;;3.80;;
70505;SDS011;58032;49.820;6.274;2023-03-21T08:57:37;11.03;;;4.30;;
70505;SDS011;58032;49.820;6.274;2023-03-21T09:00:04;9.77;;;3.55;;
70505;SDS011;58032;49.820;6.274;2023-03-21T09:02:37;7.68;;;3.65;;
70505;SDS011;58032;49.820;6.274;2023-03-21T09:05:05;11.07;;;3.70;;
70505;SDS011;58032;49.820;6.274;2023-03-21T09:07:33;6.78;;;3.22;;
70505;SDS011;58032;49.820;6.274;2023-03-21T09:10:02;10.53;;;3.40;;
70505;SDS011;58032;49.820;6.274;2023-03-21T09:12:45;8.60;;;3.03;;
70505;SDS011;58032;49.820;6.274;2023-03-21T09:15:13;11.27;;;3.22;;
70505;SDS011;58032;49.820;6.274;2023-03-21T09:17:40;9.32;;;3.55;;
70505;SDS011;58032;49.820;6.274;2023-03-21T09:20:10;8.35;;;3.30;;
70505;SDS011;58032;49.820;6.274;2023-03-21T09:22:47;6.93;;;3.20;;
70505;SDS011;58032;49.820;6.274;2023-03-21T09:25:17;6.57;;;3.00;;
70505;SDS011;58032;49.820;6.274;2023-03-21T09:27:46;7.93;;;3.25;;
70505;SDS011;58032;49.820;6.274;2023-03-21T09:30:14;8.10;;;2.65;;
70505;SDS011;58032;49.820;6.274;2023-03-21T09:32:43;8.05;;;3.42;;
70505;SDS011;58032;49.820;6.274;2023-03-21T09:35:17;9.13;;;3.50;;
70505;SDS011;58032;49.820;6.274;2023-03-21T09:37:45;8.32;;;2.80;;
70505;SDS011;58032;49.820;6.274;2023-03-21T09:40:14;8.80;;;3.13;;
70505;SDS011;58032;49.820;6.274;2023-03-21T09:43:02;7.70;;;3.30;;
70505;SDS011;58032;49.820;6.274;2023-03-21T09:45:41;6.85;;;3.63;;
70505;SDS011;58032;49.820;6.274;2023-03-21T09:48:18;9.57;;;3.63;;
70505;SDS011;58032;49.820;6.274;2023-03-21T09:50:57;9.25;;;3.15;;
70505;SDS011;58032;49.820;6.274;2023-03-21T09:53:26;7.50;;;3.40;;
70505;SDS011;58032;49.820;6.274;2023-03-21T09:55:59;8.15;;;3.95;;
70505;SDS011;58032;49.820;6.274;2023-03-21T10:01:16;7.10;;;3.10;;
70505;SDS011;58032;49.820;6.274;2023-03-21T10:03:55;7.43;;;3.15;;
70505;SDS011;58032;49.820;6.274;2023-03-21T10:06:26;6.82;;;3.00;;
70505;SDS011;58032;49.820;6.274;2023-03-21T10:08:59;6.75;;;3.25;;
70505;SDS011;58032;49.820;6.274;2023-03-21T10:14:18;8.23;;;3.30;;
70505;SDS011;58032;49.820;6.274;2023-03-21T10:16:51;7.40;;;3.22;;
70505;SDS011;58032;49.820;6.274;2023-03-21T10:19:26;8.00;;;3.65;;
70505;SDS011;58032;49.820;6.274;2023-03-21T10:21:53;8.50;;;3.47;;
70505;SDS011;58032;49.820;6.274;2023-03-21T10:24:27;10.55;;;3.47;;
70505;SDS011;58032;49.820;6.274;2023-03-21T10:26:56;7.70;;;2.83;;
70505;SDS011;58032;49.820;6.274;2023-03-21T10:29:26;7.65;;;3.28;;
70505;SDS011;58032;49.820;6.274;2023-03-21T10:31:58;7.78;;;2.63;;
70505;SDS011;58032;49.820;6.274;2023-03-21T10:34:28;7.40;;;2.95;;
70505;SDS011;58032;49.820;6.274;2023-03-21T10:36:59;7.28;;;3.05;;
70505;SDS011;58032;49.820;6.274;2023-03-21T10:41:57;9.20;;;3.67;;
70505;SDS011;58032;49.820;6.274;2023-03-21T10:44:30;9.30;;;3.15;;
70505;SDS011;58032;49.820;6.274;2023-03-21T10:47:06;7.82;;;3.20;;
70505;SDS011;58032;49.820;6.274;2023-03-21T10:49:35;10.35;;;3.65;;
70505;SDS011;58032;49.820;6.274;2023-03-21T10:52:22;8.97;;;3.27;;
70505;SDS011;58032;49.820;6.274;2023-03-21T10:55:03;4.55;;;2.15;;
70505;SDS011;58032;49.820;6.274;2023-03-21T10:57:56;7.32;;;3.30;;
70505;SDS011;58032;49.820;6.274;2023-03-21T11:00:33;7.20;;;3.00;;
70505;SDS011;58032;49.820;6.274;2023-03-21T11:03:03;8.07;;;3.17;;
70505;SDS011;58032;49.820;6.274;2023-03-21T11:05:39;7.83;;;3.43;;
70505;SDS011;58032;49.820;6.274;2023-03-21T11:08:14;7.03;;;3.25;;
70505;SDS011;58032;49.820;6.274;2023-03-21T11:10:54;6.45;;;3.10;;
70505;SDS011;58032;49.820;6.274;2023-03-21T11:13:32;7.50;;;3.38;;
70505;SDS011;58032;49.820;6.274;2023-03-21T11:16:10;8.90;;;3.78;;
70505;SDS011;58032;49.820;6.274;2023-03-21T11:18:48;8.23;;;3.33;;
70505;SDS011;58032;49.820;6.274;2023-03-21T11:21:16;7.13;;;2.80;;
70505;SDS011;58032;49.820;6.274;2023-03-21T11:23:47;7.40;;;2.97;;
70505;SDS011;58032;49.820;6.274;2023-03-21T11:26:21;10.60;;;3.63;;
70505;SDS011;58032;49.820;6.274;2023-03-21T11:28:55;5.43;;;2.30;;
70505;SDS011;58032;49.820;6.274;2023-03-21T11:31:35;10.60;;;3.53;;
70505;SDS011;58032;49.820;6.274;2023-03-21T11:34:05;7.53;;;3.60;;
70505;SDS011;58032;49.820;6.274;2023-03-21T11:36:35;8.93;;;3.72;;
70505;SDS011;58032;49.820;6.274;2023-03-21T11:41:38;6.60;;;3.05;;
70505;SDS011;58032;49.820;6.274;2023-03-21T11:44:08;8.40;;;3.00;;
70505;SDS011;58032;49.820;6.274;2023-03-21T11:46:53;9.13;;;3.25;;
70505;SDS011;58032;49.820;6.274;2023-03-21T11:49:21;8.55;;;3.00;;
70505;SDS011;58032;49.820;6.274;2023-03-21T11:52:35;6.05;;;2.90;;
70505;SDS011;58032;49.820;6.274;2023-03-21T11:54:59;5.20;;;2.47;;
70505;SDS011;58032;49.820;6.274;2023-03-21T12:01:02;5.80;;;2.92;;
70505;SDS011;58032;49.820;6.274;2023-03-21T12:03:46;8.98;;;3.58;;
70505;SDS011;58032;49.820;6.274;2023-03-21T12:06:25;7.53;;;3.58;;
70505;SDS011;58032;49.820;6.274;2023-03-21T12:20:30;6.68;;;3.67;;
70505;SDS011;58032;49.820;6.274;2023-03-21T12:25:49;7.33;;;2.83;;
70505;SDS011;58032;49.820;6.274;2023-03-21T12:28:34;8.65;;;3.72;;
70505;SDS011;58032;49.820;6.274;2023-03-21T12:31:30;7.53;;;3.70;;
70505;SDS011;58032;49.820;6.274;2023-03-21T12:43:24;8.85;;;3.25;;
70505;SDS011;58032;49.820;6.274;2023-03-21T12:45:57;10.75;;;4.50;;
70505;SDS011;58032;49.820;6.274;2023-03-21T12:48:32;8.73;;;4.22;;
70505;SDS011;58032;49.820;6.274;2023-03-21T12:51:01;9.55;;;4.05;;
70505;SDS011;58032;49.820;6.274;2023-03-21T12:53:46;7.53;;;3.83;;
70505;SDS011;58032;49.820;6.274;2023-03-21T12:56:18;11.98;;;4.28;;
70505;SDS011;58032;49.820;6.274;2023-03-21T12:59:33;8.75;;;4.70;;
70505;SDS011;58032;49.820;6.274;2023-03-21T13:01:52;9.53;;;3.67;;
70505;SDS011;58032;49.820;6.274;2023-03-21T13:04:30;7.32;;;3.65;;
70505;SDS011;58032;49.820;6.274;2023-03-21T13:07:02;8.45;;;4.00;;
70505;SDS011;58032;49.820;6.274;2023-03-21T13:09:34;9.98;;;3.80;;
70505;SDS011;58032;49.820;6.274;2023-03-21T13:15:42;6.65;;;3.45;;
70505;SDS011;58032;49.820;6.274;2023-03-21T13:18:31;9.52;;;3.42;;
70505;SDS011;58032;49.820;6.274;2023-03-21T13:21:17;7.28;;;3.70;;
70505;SDS011;58032;49.820;6.274;2023-03-21T13:24:17;8.17;;;4.10;;
70505;SDS011;58032;49.820;6.274;2023-03-21T13:26:46;8.52;;;3.65;;
70505;SDS011;58032;49.820;6.274;2023-03-21T13:32:22;9.00;;;4.35;;
70505;SDS011;58032;49.820;6.274;2023-03-21T13:34:54;9.02;;;3.78;;
70505;SDS011;58032;49.820;6.274;2023-03-21T13:37:25;8.40;;;4.25;;
70505;SDS011;58032;49.820;6.274;2023-03-21T13:39:59;9.80;;;4.57;;
70505;SDS011;58032;49.820;6.274;2023-03-21T13:42:42;9.27;;;4.70;;
70505;SDS011;58032;49.820;6.274;2023-03-21T13:45:21;9.80;;;5.07;;
70505;SDS011;58032;49.820;6.274;2023-03-21T13:47:56;9.90;;;4.95;;
70505;SDS011;58032;49.820;6.274;2023-03-21T13:55:42;9.75;;;4.50;;
70505;SDS011;58032;49.820;6.274;2023-03-21T14:01:09;9.70;;;4.47;;
70505;SDS011;58032;49.820;6.274;2023-03-21T14:03:55;10.45;;;5.20;;
70505;SDS011;58032;49.820;6.274;2023-03-21T14:06:30;7.72;;;4.43;;
70505;SDS011;58032;49.820;6.274;2023-03-21T14:09:00;11.95;;;5.13;;
70505;SDS011;58032;49.820;6.274;2023-03-21T14:11:29;9.65;;;4.60;;
70505;SDS011;58032;49.820;6.274;2023-03-21T14:13:59;7.32;;;4.03;;
70505;SDS011;58032;49.820;6.274;2023-03-21T14:16:28;6.85;;;4.00;;
70505;SDS011;58032;49.820;6.274;2023-03-21T14:19:02;8.35;;;4.20;;
70505;SDS011;58032;49.820;6.274;2023-03-21T14:21:32;8.30;;;4.32;;
70505;SDS011;58032;49.820;6.274;2023-03-21T14:24:02;7.68;;;3.58;;
70505;SDS011;58032;49.820;6.274;2023-03-21T14:26:32;7.10;;;4.07;;
70505;SDS011;58032;49.820;6.274;2023-03-21T14:29:05;10.05;;;3.63;;
70505;SDS011;58032;49.820;6.274;2023-03-21T14:31:48;6.88;;;3.55;;
70505;SDS011;58032;49.820;6.274;2023-03-21T14:34:16;8.00;;;4.82;;
70505;SDS011;58032;49.820;6.274;2023-03-21T14:36:44;6.78;;;3.45;;
70505;SDS011;58032;49.820;6.274;2023-03-21T14:39:23;8.20;;;4.00;;
70505;SDS011;58032;49.820;6.274;2023-03-21T14:41:54;8.43;;;3.15;;
70505;SDS011;58032;49.820;6.274;2023-03-21T14:44:33;8.00;;;3.30;;
70505;SDS011;58032;49.820;6.274;2023-03-21T14:47:20;4.75;;;2.33;;
70505;SDS011;58032;49.820;6.274;2023-03-21T14:49:52;8.45;;;2.42;;
70505;SDS011;58032;49.820;6.274;2023-03-21T14:52:22;6.53;;;2.25;;
70505;SDS011;58032;49.820;6.274;2023-03-21T14:54:55;9.10;;;2.90;;
70505;SDS011;58032;49.820;6.274;2023-03-21T14:57:24;5.55;;;2.70;;
70505;SDS011;58032;49.820;6.274;2023-03-21T14:59:55;5.00;;;2.53;;
70505;SDS011;58032;49.820;6.274;2023-03-21T15:02:29;5.60;;;2.50;;
70505;SDS011;58032;49.820;6.274;2023-03-21T15:05:10;5.70;;;2.63;;
70505;SDS011;58032;49.820;6.274;2023-03-21T15:07:51;4.85;;;2.47;;
70505;SDS011;58032;49.820;6.274;2023-03-21T15:10:27;6.28;;;2.63;;
70505;SDS011;58032;49.820;6.274;2023-03-21T15:12:57;6.03;;;2.60;;
70505;SDS011;58032;49.820;6.274;2023-03-21T15:15:27;6.78;;;2.70;;
70505;SDS011;58032;49.820;6.274;2023-03-21T15:17:55;5.85;;;3.10;;
70505;SDS011;58032;49.820;6.274;2023-03-21T15:20:29;5.88;;;2.67;;
70505;SDS011;58032;49.820;6.274;2023-03-21T15:23:00;5.65;;;2.63;;
70505;SDS011;58032;49.820;6.274;2023-03-21T15:25:31;7.82;;;2.67;;
70505;SDS011;58032;49.820;6.274;2023-03-21T15:28:01;7.20;;;2.40;;
70505;SDS011;58032;49.820;6.274;2023-03-21T15:30:30;5.75;;;2.75;;
70505;SDS011;58032;49.820;6.274;2023-03-21T15:33:07;3.92;;;1.73;;
70505;SDS011;58032;49.820;6.274;2023-03-21T15:43:47;7.80;;;2.63;;
70505;SDS011;58032;49.820;6.274;2023-03-21T15:49:05;5.90;;;2.63;;
70505;SDS011;58032;49.820;6.274;2023-03-21T15:51:42;5.82;;;2.55;;
70505;SDS011;58032;49.820;6.274;2023-03-21T15:54:13;6.38;;;2.20;;
70505;SDS011;58032;49.820;6.274;2023-03-21T15:56:43;7.22;;;2.35;;
70505;SDS011;58032;49.820;6.274;2023-03-21T15:59:13;5.40;;;2.55;;
70505;SDS011;58032;49.820;6.274;2023-03-21T16:01:46;4.20;;;2.08;;
70505;SDS011;58032;49.820;6.274;2023-03-21T16:04:15;7.68;;;2.60;;
70505;SDS011;58032;49.820;6.274;2023-03-21T16:06:57;6.25;;;2.00;;
70505;SDS011;58032;49.820;6.274;2023-03-21T16:09:43;5.68;;;2.22;;
70505;SDS011;58032;49.820;6.274;2023-03-21T16:12:12;5.22;;;1.85;;
70505;SDS011;58032;49.820;6.274;2023-03-21T16:14:43;6.80;;;2.10;;
70505;SDS011;58032;49.820;6.274;2023-03-21T16:17:18;5.05;;;1.75;;
70505;SDS011;58032;49.820;6.274;2023-03-21T16:19:59;5.05;;;2.05;;
70505;SDS011;58032;49.820;6.274;2023-03-21T16:22:26;6.80;;;2.10;;
70505;SDS011;58032;49.820;6.274;2023-03-21T16:24:55;5.03;;;1.92;;
70505;SDS011;58032;49.820;6.274;2023-03-21T16:27:22;5.47;;;2.45;;
70505;SDS011;58032;49.820;6.274;2023-03-21T16:29:49;8.43;;;2.10;;
70505;SDS011;58032;49.820;6.274;2023-03-21T16:32:16;4.50;;;1.70;;
70505;SDS011;58032;49.820;6.274;2023-03-21T16:34:43;5.25;;;1.73;;
70505;SDS011;58032;49.820;6.274;2023-03-21T16:37:12;5.22;;;2.20;;
70505;SDS011;58032;49.820;6.274;2023-03-21T16:39:41;6.65;;;1.98;;
70505;SDS011;58032;49.820;6.274;2023-03-21T16:42:09;5.90;;;1.80;;
70505;SDS011;58032;49.820;6.274;2023-03-21T16:44:38;5.40;;;2.00;;
70505;SDS011;58032;49.820;6.274;2023-03-21T16:47:16;6.10;;;1.88;;
70505;SDS011;58032;49.820;6.274;2023-03-21T16:49:44;4.65;;;2.00;;
70505;SDS011;58032;49.820;6.274;2023-03-21T16:52:12;3.80;;;1.77;;
70505;SDS011;58032;49.820;6.274;2023-03-21T16:54:40;7.10;;;1.70;;